Time;durP1;ratioP1;P1;durP2;ratioP2;P2;SDS_P1;SDS_P2;PMS_P1;PMS_P2;Temp;Humidity;BMP_temperature;BMP_pressure;BME280_temperature;BME280_humidity;BME280_pressure;Samples;Min_cycle;Max_cycle;Signal;HPM_P1;HPM_P2
2023/06/09 00:01:00;;;;;;;3.63;2.30;;;21.10;73.70;;;;;;5051409;28;20123;-33
2023/06/09 00:03:27;;;;;;;3.80;2.40;;;21.40;60.90;;;;;;5039083;28;20528;-32
2023/06/09 00:05:54;;;;;;;3.60;2.65;;;20.70;73.10;;;;;;5031753;28;20050;-33
2023/06/09 00:08:21;;;;;;;4.63;2.40;;;20.70;66.70;;;;;;5031513;28;20049;-33
2023/06/09 00:10:48;;;;;;;3.70;1.98;;;21.50;73.60;;;;;;5031377;28;20053;-33
2023/06/09 00:13:17;;;;;;;4.07;2.63;;;;;;;;;;5049210;28;20152;-32
2023/06/09 00:15:45;;;;;;;3.35;2.33;;;20.60;73.50;;;;;;5051662;28;20460;-33
2023/06/09 00:18:16;;;;;;;3.70;2.25;;;;;;;;;;5051505;28;20049;-33
2023/06/09 00:20:42;;;;;;;4.20;2.40;;;20.90;73.50;;;;;;5051125;28;20758;-33
2023/06/09 00:23:09;;;;;;;3.63;2.08;;;;;;;;;;5051127;28;20147;-33
2023/06/09 00:25:37;;;;;;;4.10;2.35;;;21.20;74.30;;;;;;5051361;28;20490;-33
2023/06/09 00:28:04;;;;;;;4.40;2.60;;;20.80;73.10;;;;;;5051689;28;20132;-33
2023/06/09 00:30:31;;;;;;;3.67;2.42;;;;;;;;;;5051966;28;20127;-32
2023/06/09 00:32:59;;;;;;;5.55;2.53;;;21.00;56.50;;;;;;5063808;28;20052;-33
2023/06/09 00:35:26;;;;;;;4.10;2.25;;;20.30;73.30;;;;;;5051274;28;20091;-33
2023/06/09 00:37:53;;;;;;;4.28;2.33;;;21.30;73.80;;;;;;5050743;28;20497;-33
2023/06/09 00:40:21;;;;;;;5.88;2.50;;;21.30;63.20;;;;;;5051328;28;20124;-33
2023/06/09 00:42:48;;;;;;;4.53;2.28;;;21.50;73.50;;;;;;5050472;28;20412;-33
2023/06/09 00:45:15;;;;;;;3.58;2.10;;;20.40;73.10;;;;;;5051618;28;20041;-33
2023/06/09 00:47:42;;;;;;;3.83;2.40;;;;;;;;;;5055083;28;20075;-33
2023/06/09 00:50:12;;;;;;;4.38;2.47;;;;;;;;;;5055060;28;20049;-33
2023/06/09 00:52:39;;;;;;;4.93;2.47;;;21.20;56.60;;;;;;5054172;28;20493;-33
2023/06/09 00:55:06;;;;;;;4.55;2.50;;;20.90;56.50;;;;;;5055017;28;20148;-32
2023/06/09 00:57:34;;;;;;;4.40;2.25;;;21.00;73.80;;;;;;5054971;28;20131;-33
2023/06/09 01:00:00;;;;;;;4.18;2.63;;;20.80;68.50;;;;;;5054932;28;20053;-33
2023/06/09 01:02:27;;;;;;;4.65;2.20;;;21.20;70.90;;;;;;5050418;28;20129;-33
2023/06/09 01:04:54;;;;;;;3.83;2.50;;;;;;;;;;5034503;28;20589;-32
2023/06/09 01:07:30;;;;;;;5.60;2.67;;;20.90;74.10;;;;;;5035108;28;20469;-33
2023/06/09 01:09:59;;;;;;;4.15;2.13;;;21.60;73.50;;;;;;5034853;28;20060;-33
2023/06/09 01:12:32;;;;;;;5.32;2.70;;;21.70;74.10;;;;;;5044140;28;20044;-33
2023/06/09 01:15:05;;;;;;;4.60;2.53;;;20.90;56.40;;;;;;5054402;28;20052;-33
2023/06/09 01:17:32;;;;;;;4.20;2.40;;;21.10;74.30;;;;;;5054882;28;20059;-33
2023/06/09 01:20:04;;;;;;;4.68;2.35;;;21.30;74.10;;;;;;5054301;28;20512;-33
2023/06/09 01:22:37;;;;;;;4.30;2.63;;;20.90;56.50;;;;;;5054064;28;20123;-33
2023/06/09 01:25:06;;;;;;;3.45;2.33;;;20.50;73.10;;;;;;5054334;28;20124;-33
2023/06/09 01:27:36;;;;;;;5.15;2.80;;;20.40;69.60;;;;;;5055419;28;20584;-33
2023/06/09 01:30:03;;;;;;;3.88;2.40;;;21.10;74.30;;;;;;5063105;28;20083;-33
2023/06/09 01:32:30;;;;;;;4.57;2.67;;;20.60;70.60;;;;;;5054006;28;20162;-33
2023/06/09 01:34:56;;;;;;;3.90;2.33;;;20.60;73.50;;;;;;5053593;28;20057;-33
2023/06/09 01:37:23;;;;;;;6.10;2.65;;;;;;;;;;5053578;28;20095;-33
2023/06/09 01:39:50;;;;;;;5.10;2.63;;;20.00;73.60;;;;;;5053978;28;20461;-33
2023/06/09 01:42:18;;;;;;;3.85;2.30;;;;;;;;;;5053818;28;20049;-33
2023/06/09 01:44:46;;;;;;;4.80;2.50;;;21.20;58.80;;;;;;5054081;28;20132;-33
2023/06/09 01:47:12;;;;;;;3.85;2.40;;;21.10;73.30;;;;;;5054031;28;20051;-33
2023/06/09 01:49:44;;;;;;;4.47;2.42;;;20.90;74.10;;;;;;5053970;28;20124;-34
2023/06/09 01:52:13;;;;;;;3.33;2.05;;;21.00;57.80;;;;;;5053061;28;20049;-32
2023/06/09 01:54:42;;;;;;;3.15;2.53;;;20.80;56.40;;;;;;5053727;28;20060;-33
2023/06/09 01:57:11;;;;;;;5.35;2.40;;;21.40;61.90;;;;;;5053874;28;20092;-33
2023/06/09 01:59:41;;;;;;;2.85;2.17;;;20.30;64.20;;;;;;5053795;28;20128;-33
2023/06/09 02:02:09;;;;;;;3.47;2.47;;;21.00;64.20;;;;;;5051572;28;20053;-33
2023/06/09 02:04:35;;;;;;;3.95;2.30;;;20.80;73.90;;;;;;5033704;28;20412;-33
2023/06/09 02:07:03;;;;;;;3.88;2.38;;;21.90;59.20;;;;;;5033523;28;20140;-33
2023/06/09 02:09:30;;;;;;;5.10;2.38;;;20.60;73.20;;;;;;5033659;28;20057;-33
2023/06/09 02:11:57;;;;;;;3.60;2.30;;;20.20;64.40;;;;;;5050911;28;20552;-33
2023/06/09 02:14:24;;;;;;;4.63;2.33;;;20.20;73.80;;;;;;5053171;28;20045;-33
2023/06/09 02:16:53;;;;;;;4.40;2.10;;;21.60;73.70;;;;;;5053367;28;20049;-33
2023/06/09 02:19:22;;;;;;;3.72;2.20;;;20.10;73.80;;;;;;5053281;28;20481;-33
2023/06/09 02:21:49;;;;;;;2.78;2.08;;;;;;;;;;5053016;28;20128;-33
2023/06/09 02:24:16;;;;;;;3.75;2.40;;;20.70;74.10;;;;;;5059912;28;20052;-33
2023/06/09 02:26:43;;;;;;;3.92;2.85;;;19.80;59.10;;;;;;5064861;28;20048;-33
2023/06/09 02:29:10;;;;;;;3.78;2.30;;;20.80;74.20;;;;;;5073261;28;20136;-33
2023/06/09 02:31:37;;;;;;;4.72;2.50;;;;;;;;;;5058682;28;20107;-33
2023/06/09 02:34:04;;;;;;;3.55;2.30;;;20.50;74.00;;;;;;5052935;28;20508;-33
2023/06/09 02:36:32;;;;;;;3.17;2.17;;;20.50;74.10;;;;;;5052593;28;20128;-33
2023/06/09 02:38:59;;;;;;;3.63;2.60;;;21.10;73.50;;;;;;5053038;28;20131;-33
2023/06/09 02:41:26;;;;;;;4.93;2.47;;;20.80;61.80;;;;;;5052531;28;20131;-33
2023/06/09 02:43:53;;;;;;;3.85;2.60;;;;;;;;;;5052781;28;20505;-32
2023/06/09 02:46:22;;;;;;;3.53;2.50;;;21.10;73.60;;;;;;5035145;28;20458;-33
2023/06/09 02:48:49;;;;;;;3.55;2.30;;;20.80;73.80;;;;;;5052499;28;20076;-33
2023/06/09 02:51:16;;;;;;;4.07;2.33;;;;;;;;;;5052522;28;20147;-32
2023/06/09 02:53:44;;;;;;;4.72;2.40;;;20.10;73.70;;;;;;5052471;28;20128;-33
2023/06/09 02:56:11;;;;;;;4.28;2.50;;;20.40;73.90;;;;;;5052874;28;20131;-33
2023/06/09 02:58:37;;;;;;;4.18;2.60;;;20.40;73.20;;;;;;5052489;28;20053;-33
2023/06/09 03:01:04;;;;;;;3.67;2.53;;;21.20;68.50;;;;;;5052386;28;20132;-33
2023/06/09 03:03:31;;;;;;;4.63;2.45;;;20.40;73.80;;;;;;5039292;28;20049;-33
2023/06/09 03:05:58;;;;;;;3.55;2.10;;;;;;;;;;5032544;28;20045;-33
2023/06/09 03:08:25;;;;;;;4.65;2.55;;;21.20;74.30;;;;;;5031674;28;20445;-33
2023/06/09 03:10:53;;;;;;;4.95;2.67;;;20.60;56.30;;;;;;5039600;28;20045;-33
2023/06/09 03:13:21;;;;;;;3.58;2.40;;;21.40;65.20;;;;;;5051984;28;20501;-33
2023/06/09 03:15:50;;;;;;;5.55;2.40;;;;;;;;;;5051938;28;20049;-33
2023/06/09 03:18:17;;;;;;;4.32;2.65;;;;;;;;;;5052294;28;20103;-33
2023/06/09 03:20:44;;;;;;;4.70;2.50;;;;;;;;;;5043288;28;20052;-31
2023/06/09 03:23:11;;;;;;;4.30;2.75;;;20.30;63.20;;;;;;5051948;28;20076;-33
2023/06/09 03:25:39;;;;;;;3.00;2.45;;;;;;;;;;5052059;28;20111;-33
2023/06/09 03:28:07;;;;;;;3.97;2.42;;;20.80;73.20;;;;;;5051808;28;20060;-33
2023/06/09 03:30:33;;;;;;;3.72;2.30;;;20.40;73.40;;;;;;5051952;28;20132;-33
2023/06/09 03:33:00;;;;;;;5.47;2.75;;;20.20;73.90;;;;;;5051073;28;20055;-33
2023/06/09 03:35:27;;;;;;;5.13;2.40;;;21.10;63.60;;;;;;5051927;28;20052;-33
2023/06/09 03:37:54;;;;;;;3.53;2.30;;;20.90;74.20;;;;;;5050959;28;20481;-33
2023/06/09 03:40:20;;;;;;;4.38;2.30;;;20.40;74.00;;;;;;5051227;28;20131;-33
2023/06/09 03:42:47;;;;;;;3.70;2.30;;;;;;;;;;5051272;28;20045;-33
2023/06/09 03:45:16;;;;;;;4.28;2.78;;;20.40;73.20;;;;;;5051713;28;20488;-33
2023/06/09 03:47:43;;;;;;;5.05;2.65;;;;;;;;;;5051432;28;20057;-33
2023/06/09 03:50:10;;;;;;;4.07;2.42;;;20.50;60.10;;;;;;5051603;28;20144;-33
2023/06/09 03:52:36;;;;;;;3.42;2.55;;;20.70;74.20;;;;;;5050791;28;20055;-33
2023/06/09 03:55:03;;;;;;;4.82;2.45;;;;;;;;;;5051069;28;20565;-32
2023/06/09 03:57:30;;;;;;;5.63;2.72;;;20.60;73.30;;;;;;5051519;28;20041;-33
2023/06/09 03:59:57;;;;;;;4.78;2.40;;;20.60;73.30;;;;;;5051460;28;20119;-33
2023/06/09 04:02:25;;;;;;;4.13;2.30;;;20.50;59.20;;;;;;5047484;28;20793;-33
2023/06/09 04:04:53;;;;;;;4.13;2.60;;;20.60;63.10;;;;;;5031352;28;20048;-33
2023/06/09 04:07:20;;;;;;;4.20;2.50;;;;;;;;;;5031428;28;20056;-32
2023/06/09 04:09:47;;;;;;;4.18;2.33;;;21.50;61.60;;;;;;5041945;28;20076;-33
2023/06/09 04:12:13;;;;;;;3.53;2.42;;;20.30;73.10;;;;;;5051002;28;20485;-33
2023/06/09 04:14:40;;;;;;;4.50;2.75;;;;;;;;;;5051541;28;20137;-33
2023/06/09 04:17:07;;;;;;;3.40;2.55;;;19.70;73.30;;;;;;5059156;28;20045;-33
2023/06/09 04:19:35;;;;;;;6.55;3.00;;;20.40;73.60;;;;;;5060872;28;20567;-34
2023/06/09 04:22:07;;;;;;;3.78;2.45;;;20.50;56.30;;;;;;5054280;28;20051;-33
2023/06/09 04:24:34;;;;;;;5.00;2.40;;;20.80;73.50;;;;;;5055225;28;20049;-33
2023/06/09 04:27:03;;;;;;;3.40;2.28;;;;;;;;;;5055501;28;20136;-33
2023/06/09 04:29:31;;;;;;;5.20;2.70;;;20.40;74.10;;;;;;5055099;28;20051;-33
2023/06/09 04:31:59;;;;;;;4.32;2.30;;;;;;;;;;5055046;28;20053;-32
2023/06/09 04:34:26;;;;;;;6.00;2.70;;;20.90;74.40;;;;;;5055157;28;20049;-33
2023/06/09 04:36:56;;;;;;;4.68;2.55;;;20.40;74.10;;;;;;5054644;28;20123;-33
2023/06/09 04:39:25;;;;;;;3.88;2.35;;;;;;;;;;5054927;28;20049;-31
2023/06/09 04:41:53;;;;;;;3.55;2.45;;;20.40;73.70;;;;;;5054854;28;20049;-33
2023/06/09 04:44:20;;;;;;;4.32;2.60;;;20.80;74.40;;;;;;5055069;28;20049;-33
2023/06/09 04:46:49;;;;;;;4.43;2.40;;;;;;;;;;5037043;28;20107;-32
2023/06/09 04:49:16;;;;;;;3.83;2.45;;;20.80;73.50;;;;;;5054899;28;20077;-33
2023/06/09 04:51:46;;;;;;;3.88;2.33;;;20.50;73.40;;;;;;5054840;28;20053;-33
2023/06/09 04:54:15;;;;;;;4.05;2.22;;;20.50;56.30;;;;;;5054773;28;20045;-33
2023/06/09 04:56:43;;;;;;;4.82;2.70;;;;;;;;;;5054383;28;20080;-32
2023/06/09 04:59:11;;;;;;;4.20;2.60;;;20.80;57.60;;;;;;5055065;28;20053;-33
2023/06/09 05:01:38;;;;;;;3.70;2.35;;;;;;;;;;5054746;28;20136;-33
2023/06/09 05:04:07;;;;;;;3.97;2.47;;;20.70;74.40;;;;;;5037089;28;20180;-33
2023/06/09 05:06:36;;;;;;;8.40;2.83;;;;;;;;;;5047885;28;20124;-32
2023/06/09 05:09:02;;;;;;;3.88;2.50;;;20.30;73.70;;;;;;5040611;28;20041;-33
2023/06/09 05:11:31;;;;;;;3.42;2.40;;;20.90;66.60;;;;;;5054575;28;20079;-33
2023/06/09 05:13:57;;;;;;;4.03;2.15;;;20.30;74.20;;;;;;5062591;28;20047;-34
2023/06/09 05:16:25;;;;;;;3.78;2.45;;;21.30;62.70;;;;;;5065175;28;20051;-33
2023/06/09 05:18:52;;;;;;;4.20;2.60;;;20.50;60.50;;;;;;5054208;28;20059;-33
2023/06/09 05:21:19;;;;;;;3.65;2.70;;;20.30;74.10;;;;;;5054704;28;20127;-33
2023/06/09 05:23:45;;;;;;;5.30;2.90;;;20.20;73.10;;;;;;5053657;28;20596;-31
2023/06/09 05:26:12;;;;;;;3.13;2.50;;;;;;;;;;5053818;28;20048;-31
2023/06/09 05:28:40;;;;;;;3.88;2.42;;;20.60;69.10;;;;;;5054134;28;20040;-31
2023/06/09 05:31:07;;;;;;;4.45;2.70;;;20.10;73.20;;;;;;5053297;28;20404;-31
2023/06/09 05:33:34;;;;;;;4.43;2.60;;;20.20;73.30;;;;;;5054014;28;20124;-31
2023/06/09 05:36:01;;;;;;;5.30;2.90;;;20.80;65.20;;;;;;5053774;28;20055;-31
2023/06/09 05:38:28;;;;;;;5.60;2.50;;;20.40;74.20;;;;;;5054035;28;20076;-31
2023/06/09 05:40:55;;;;;;;4.55;2.70;;;19.30;63.80;;;;;;5053662;28;20135;-31
2023/06/09 05:43:22;;;;;;;4.88;2.88;;;19.60;73.10;;;;;;5053692;28;20383;-31
2023/06/09 05:45:50;;;;;;;4.00;2.30;;;20.50;56.40;;;;;;5053587;28;20480;-33
2023/06/09 05:48:17;;;;;;;3.75;2.47;;;20.80;60.70;;;;;;5053678;28;20053;-31
2023/06/09 05:50:44;;;;;;;3.63;2.42;;;20.90;73.00;;;;;;5051762;28;20123;-31
2023/06/09 05:53:11;;;;;;;4.70;2.50;;;;;;;;;;5050627;28;20073;-32
2023/06/09 05:55:38;;;;;;;3.47;2.30;;;20.30;73.50;;;;;;5053235;28;20506;-31
2023/06/09 05:58:05;;;;;;;3.65;2.50;;;;;;;;;;5053209;28;20124;-32
2023/06/09 06:00:33;;;;;;;4.35;2.58;;;20.90;73.30;;;;;;5052938;28;20141;-31
2023/06/09 06:03:01;;;;;;;3.50;2.70;;;20.00;56.90;;;;;;5044838;28;20064;-31
2023/06/09 06:05:27;;;;;;;4.53;3.28;;;20.50;60.90;;;;;;5044128;28;20426;-31
2023/06/09 06:07:54;;;;;;;4.70;2.58;;;20.00;73.50;;;;;;5052175;28;20127;-31
2023/06/09 06:10:22;;;;;;;2.90;2.30;;;20.20;73.70;;;;;;5052790;28;20530;-31
2023/06/09 06:12:49;;;;;;;4.32;2.50;;;20.30;73.80;;;;;;5052839;28;20045;-31
2023/06/09 06:15:15;;;;;;;4.57;2.47;;;20.80;74.40;;;;;;5049698;28;20044;-31
2023/06/09 06:17:42;;;;;;;4.35;2.78;;;20.40;70.30;;;;;;5052691;28;20463;-31
2023/06/09 06:20:13;;;;;;;4.22;2.90;;;19.50;60.40;;;;;;5052267;28;20569;-31
2023/06/09 06:22:41;;;;;;;3.70;2.22;;;20.00;74.00;;;;;;5045144;28;20307;-31
2023/06/09 06:25:12;;;;;;;3.97;2.60;;;20.40;56.40;;;;;;5041160;28;20144;-32
2023/06/09 06:27:40;;;;;;;3.72;2.45;;;;;;;;;;5033320;28;20080;-30
2023/06/09 06:30:08;;;;;;;3.75;2.30;;;20.30;63.10;;;;;;5047363;28;20128;-31
2023/06/09 06:32:35;;;;;;;3.88;2.63;;;20.70;72.60;;;;;;5052638;28;20056;-31
2023/06/09 06:35:02;;;;;;;3.97;2.65;;;21.00;74.30;;;;;;5042713;28;20045;-31
2023/06/09 06:37:30;;;;;;;4.43;2.60;;;19.30;69.40;;;;;;5052708;28;20477;-31
2023/06/09 06:39:57;;;;;;;4.85;2.85;;;20.70;70.90;;;;;;5052204;28;20064;-30
2023/06/09 06:42:23;;;;;;;2.97;2.20;;;20.20;73.80;;;;;;5051729;28;20088;-30
2023/06/09 06:44:50;;;;;;;3.95;2.60;;;20.30;74.20;;;;;;5051917;28;20076;-30
2023/06/09 06:47:17;;;;;;;4.40;2.70;;;19.80;64.80;;;;;;5052763;28;20136;-30
2023/06/09 06:49:43;;;;;;;6.32;2.78;;;20.70;74.40;;;;;;5052874;28;20128;-30
2023/06/09 06:52:10;;;;;;;3.85;2.53;;;;;;;;;;5052725;28;20049;-34
2023/06/09 06:54:38;;;;;;;4.55;2.80;;;20.40;56.40;;;;;;5052719;28;20489;-31
2023/06/09 06:57:06;;;;;;;3.33;2.58;;;20.80;67.60;;;;;;5053079;28;20136;-31
2023/06/09 06:59:32;;;;;;;5.47;2.55;;;20.80;74.50;;;;;;5052249;28;20048;-30
2023/06/09 07:01:59;;;;;;;4.75;2.40;;;;;;;;;;5052862;28;20140;-32
2023/06/09 07:04:26;;;;;;;3.65;2.60;;;20.40;73.90;;;;;;5036429;28;20129;-30
2023/06/09 07:06:53;;;;;;;4.85;2.60;;;;;;;;;;5052574;28;20501;-31
2023/06/09 07:09:20;;;;;;;3.65;2.17;;;20.30;73.50;;;;;;5052040;28;20401;-30
2023/06/09 07:11:48;;;;;;;4.63;2.70;;;21.50;74.40;;;;;;5051442;28;20049;-31
2023/06/09 07:14:15;;;;;;;4.20;2.30;;;20.20;70.10;;;;;;5043962;28;20557;-31
2023/06/09 07:16:42;;;;;;;3.80;2.42;;;20.80;74.00;;;;;;5032232;28;20081;-31
2023/06/09 07:19:09;;;;;;;3.75;2.55;;;21.10;74.20;;;;;;5046506;28;20071;-30
2023/06/09 07:21:36;;;;;;;3.97;2.53;;;21.10;67.30;;;;;;5052098;28;20127;-30
2023/06/09 07:24:04;;;;;;;4.25;2.40;;;20.80;74.00;;;;;;5052463;28;20452;-30
2023/06/09 07:26:31;;;;;;;3.15;2.30;;;21.00;74.10;;;;;;5043115;28;20060;-30
2023/06/09 07:28:59;;;;;;;4.00;2.15;;;21.10;73.80;;;;;;5045384;28;20055;-30
2023/06/09 07:31:25;;;;;;;4.38;2.40;;;20.70;73.50;;;;;;5052276;28;20209;-30
2023/06/09 07:33:52;;;;;;;3.85;2.25;;;20.70;61.70;;;;;;5051869;28;20117;-31
2023/06/09 07:36:19;;;;;;;2.67;2.17;;;20.70;73.80;;;;;;5051593;28;20135;-30
2023/06/09 07:38:47;;;;;;;3.35;2.40;;;;;;;;;;5050494;28;20060;-30
2023/06/09 07:41:14;;;;;;;4.03;2.33;;;;;;;;;;5033379;28;20056;-30
2023/06/09 07:43:41;;;;;;;3.20;2.40;;;;;;;;;;5030528;28;20045;-31
2023/06/09 07:46:10;;;;;;;3.53;2.50;;;21.20;73.70;;;;;;5030407;28;20065;-29
2023/06/09 07:48:37;;;;;;;4.78;2.65;;;21.30;70.00;;;;;;5038548;28;20532;-30
2023/06/09 07:51:04;;;;;;;4.50;2.40;;;20.80;70.50;;;;;;5050577;28;20519;-30
2023/06/09 07:53:31;;;;;;;2.90;2.22;;;20.90;63.30;;;;;;5050268;28;20052;-31
2023/06/09 07:55:59;;;;;;;2.55;2.10;;;21.40;74.30;;;;;;5050668;28;20049;-30
2023/06/09 07:58:25;;;;;;;4.15;2.40;;;20.00;73.90;;;;;;5051664;28;20041;-30
2023/06/09 08:00:52;;;;;;;3.08;2.20;;;20.70;74.40;;;;;;5046433;28;20132;-31
2023/06/09 08:03:20;;;;;;;4.80;2.40;;;20.60;56.50;;;;;;5042617;28;20144;-32
2023/06/09 08:05:47;;;;;;;4.32;2.47;;;21.50;66.00;;;;;;5052019;28;20417;-31
2023/06/09 08:08:15;;;;;;;3.95;2.38;;;20.40;74.10;;;;;;5051403;28;20045;-31
2023/06/09 08:10:41;;;;;;;3.80;2.17;;;20.90;66.30;;;;;;5051742;28;20174;-31
2023/06/09 08:13:10;;;;;;;4.07;2.42;;;;;;;;;;5051430;28;20155;-30
2023/06/09 08:15:37;;;;;;;2.88;2.22;;;20.80;74.00;;;;;;5051776;28;20053;-30
2023/06/09 08:18:04;;;;;;;3.28;2.30;;;20.50;68.60;;;;;;5051078;28;20593;-31
2023/06/09 08:20:32;;;;;;;3.45;2.25;;;21.00;73.20;;;;;;5051907;28;20150;-31
2023/06/09 08:22:58;;;;;;;3.50;2.03;;;21.40;74.20;;;;;;5051584;28;20140;-30
2023/06/09 08:25:25;;;;;;;3.33;2.58;;;21.10;73.20;;;;;;5051665;28;20128;-30
2023/06/09 08:27:52;;;;;;;2.78;2.28;;;21.40;65.60;;;;;;5051115;28;20148;-31
2023/06/09 08:30:19;;;;;;;3.83;2.42;;;21.00;73.70;;;;;;5051441;28;20159;-30
2023/06/09 08:32:46;;;;;;;3.15;2.10;;;20.90;72.80;;;;;;5051404;28;20136;-31
2023/06/09 08:35:13;;;;;;;3.38;2.35;;;21.10;73.70;;;;;;5051613;28;20049;-30
2023/06/09 08:37:42;;;;;;;2.90;2.30;;;21.00;55.80;;;;;;5033056;28;20468;-31
2023/06/09 08:40:09;;;;;;;4.38;2.30;;;21.00;62.20;;;;;;5050990;28;20049;-31
2023/06/09 08:42:36;;;;;;;2.90;2.13;;;;;;;;;;5050776;28;20565;-32
2023/06/09 08:45:05;;;;;;;3.67;2.20;;;21.10;55.60;;;;;;5051376;28;20482;-30
2023/06/09 08:47:32;;;;;;;3.05;2.08;;;20.80;68.80;;;;;;5050979;28;20049;-31
2023/06/09 08:49:59;;;;;;;2.92;2.20;;;;;;;;;;5050850;28;20095;-31
2023/06/09 08:52:26;;;;;;;3.67;2.30;;;;;;;;;;5050977;28;20557;-30
2023/06/09 08:54:54;;;;;;;3.25;2.28;;;21.70;56.50;;;;;;5051339;28;20055;-31
2023/06/09 08:57:21;;;;;;;3.30;2.30;;;20.90;64.30;;;;;;5043816;28;20391;-31
2023/06/09 08:59:48;;;;;;;4.15;2.17;;;21.40;73.00;;;;;;5047072;28;20053;-31
2023/06/09 09:02:15;;;;;;;2.60;1.90;;;22.30;65.50;;;;;;5048913;28;20132;-31
2023/06/09 09:04:42;;;;;;;3.30;2.40;;;21.70;72.70;;;;;;5031459;28;20441;-31
2023/06/09 09:07:11;;;;;;;3.22;2.00;;;21.30;55.10;;;;;;5032922;28;20137;-32
2023/06/09 09:09:38;;;;;;;3.72;1.95;;;;;;;;;;5048646;28;20056;-31
2023/06/09 09:12:10;;;;;;;3.70;2.20;;;21.70;72.90;;;;;;5054527;28;20049;-31
2023/06/09 09:14:40;;;;;;;3.85;2.08;;;21.50;72.80;;;;;;5055036;28;20128;-31
2023/06/09 09:17:09;;;;;;;2.83;2.20;;;21.40;54.90;;;;;;5053874;28;20155;-31
2023/06/09 09:19:36;;;;;;;3.35;2.15;;;21.70;72.70;;;;;;5053411;28;20049;-31
2023/06/09 09:22:03;;;;;;;3.70;2.25;;;;;;;;;;5054340;28;20056;-31
2023/06/09 09:24:30;;;;;;;2.88;1.88;;;;;;;;;;5052918;28;20703;-31
2023/06/09 09:26:58;;;;;;;3.78;2.38;;;;;;;;;;5054500;28;20087;-32
2023/06/09 09:29:28;;;;;;;4.40;1.80;;;21.30;71.50;;;;;;5054795;28;20048;-31
2023/06/09 09:31:57;;;;;;;3.15;2.03;;;22.70;72.30;;;;;;5054341;28;20135;-31
2023/06/09 09:34:26;;;;;;;4.40;2.08;;;21.10;72.10;;;;;;5053791;28;20041;-31
2023/06/09 09:36:54;;;;;;;2.83;1.75;;;21.50;71.90;;;;;;5050032;28;20055;-31
2023/06/09 09:39:21;;;;;;;3.20;2.00;;;20.50;70.90;;;;;;5042272;28;20052;-31
2023/06/09 09:42:02;;;;;;;3.05;2.15;;;21.40;72.30;;;;;;5034178;28;20045;-31
2023/06/09 09:44:36;;;;;;;4.88;2.20;;;22.70;68.90;;;;;;5047424;28;20124;-31
2023/06/09 09:47:04;;;;;;;4.90;2.30;;;22.40;72.00;;;;;;5054320;28;20061;-31
2023/06/09 09:49:32;;;;;;;3.70;2.10;;;;;;;;;;5054259;28;20127;-31
2023/06/09 09:51:58;;;;;;;2.70;2.00;;;22.10;56.70;;;;;;5054183;28;20053;-31
2023/06/09 09:54:26;;;;;;;3.42;1.90;;;21.60;72.30;;;;;;5053633;28;20060;-31
2023/06/09 09:56:54;;;;;;;2.50;2.00;;;21.30;72.10;;;;;;5054285;28;20132;-31
2023/06/09 09:59:21;;;;;;;4.68;2.15;;;;;;;;;;5049476;28;20071;-33
2023/06/09 10:01:49;;;;;;;3.13;2.10;;;21.80;72.20;;;;;;5034090;28;20132;-31
2023/06/09 10:04:16;;;;;;;2.55;1.88;;;20.90;71.10;;;;;;5052161;28;20045;-31
2023/06/09 10:06:43;;;;;;;2.40;2.03;;;;;;;;;;5054054;28;20124;-34
2023/06/09 10:09:11;;;;;;;4.75;2.13;;;21.00;70.90;;;;;;5053698;28;20485;-31
2023/06/09 10:11:38;;;;;;;3.03;1.90;;;21.90;72.10;;;;;;5053237;28;20493;-31
2023/06/09 10:14:04;;;;;;;2.85;2.13;;;21.90;72.10;;;;;;5053349;28;20053;-31
2023/06/09 10:16:31;;;;;;;3.25;2.10;;;21.50;63.30;;;;;;5053433;28;20489;-31
2023/06/09 10:18:59;;;;;;;5.13;1.90;;;22.00;54.60;;;;;;5052333;28;20136;-31
2023/06/09 10:21:27;;;;;;;2.50;1.80;;;;;;;;;;5053393;28;20049;-31
2023/06/09 10:23:53;;;;;;;3.17;2.35;;;22.40;58.00;;;;;;5053171;28;20088;-32
2023/06/09 10:26:20;;;;;;;3.10;1.83;;;21.40;70.90;;;;;;5053580;28;20418;-31
2023/06/09 10:28:47;;;;;;;3.50;2.00;;;;;;;;;;5053656;28;20114;-33
2023/06/09 10:31:14;;;;;;;3.33;2.10;;;21.90;71.10;;;;;;5052921;28;20067;-31
2023/06/09 10:33:42;;;;;;;2.83;2.10;;;21.00;70.60;;;;;;5052736;28;20045;-31
2023/06/09 10:36:10;;;;;;;3.03;2.00;;;21.90;71.90;;;;;;5052489;28;20568;-31
2023/06/09 10:38:42;;;;;;;3.15;2.03;;;22.20;71.60;;;;;;5053288;28;20051;-31
2023/06/09 10:41:12;;;;;;;2.40;2.00;;;22.50;71.40;;;;;;5052958;28;20049;-31
2023/06/09 10:43:51;;;;;;;2.90;2.00;;;22.10;54.50;;;;;;5052435;28;20490;-31
2023/06/09 10:46:18;;;;;;;4.60;1.80;;;21.60;68.10;;;;;;5053178;28;20075;-31
2023/06/09 10:48:45;;;;;;;3.20;2.15;;;22.70;71.80;;;;;;5053017;28;20135;-31
2023/06/09 10:51:40;;;;;;;3.30;2.05;;;22.10;54.40;;;;;;5034338;28;20136;-31
2023/06/09 10:54:20;;;;;;;5.47;2.03;;;21.90;63.20;;;;;;5032678;28;20409;-31
2023/06/09 10:56:52;;;;;;;2.90;1.98;;;22.20;54.50;;;;;;5043312;28;20124;-31
2023/06/09 11:00:14;;;;;;;4.38;2.40;;;22.20;54.40;;;;;;5053055;28;20136;-31
2023/06/09 11:02:41;;;;;;;2.88;1.80;;;22.20;54.50;;;;;;5047001;28;20103;-31
2023/06/09 11:05:08;;;;;;;3.47;2.00;;;22.50;65.50;;;;;;5032792;28;20132;-31
2023/06/09 11:07:50;;;;;;;3.03;2.00;;;21.90;69.10;;;;;;5032782;28;20132;-31
2023/06/09 11:10:36;;;;;;;4.60;2.10;;;22.30;71.00;;;;;;5035717;28;20124;-31
2023/06/09 11:13:04;;;;;;;4.40;2.28;;;22.20;54.40;;;;;;5051567;28;20052;-33
2023/06/09 11:16:01;;;;;;;3.15;2.20;;;22.70;56.30;;;;;;5044670;28;20090;-32
2023/06/09 11:18:27;;;;;;;4.90;2.20;;;23.40;71.70;;;;;;5041345;28;20045;-31
2023/06/09 11:21:08;;;;;;;3.88;2.40;;;22.60;71.10;;;;;;5049251;28;20044;-31
2023/06/09 11:24:11;;;;;;;3.75;2.30;;;23.10;71.50;;;;;;5051949;28;20045;-31
2023/06/09 11:26:38;;;;;;;4.10;2.65;;;;;;;;;;5047882;28;20124;-31
2023/06/09 11:29:18;;;;;;;3.05;2.20;;;22.30;71.40;;;;;;5051514;28;20494;-31
2023/06/09 11:31:51;;;;;;;4.25;2.20;;;22.10;69.50;;;;;;5045281;28;20056;-31
2023/06/09 11:34:49;;;;;;;3.17;2.20;;;22.10;65.70;;;;;;5050880;28;20045;-31
2023/06/09 11:37:18;;;;;;;3.42;2.28;;;21.80;59.70;;;;;;5051180;28;20049;-31
2023/06/09 11:39:46;;;;;;;4.60;2.35;;;22.00;70.70;;;;;;5052193;28;20501;-31
2023/06/09 11:42:12;;;;;;;4.32;2.30;;;22.50;71.30;;;;;;5051629;28;20045;-31
2023/06/09 11:44:39;;;;;;;6.97;2.53;;;22.70;71.20;;;;;;5051938;28;20053;-31
2023/06/09 11:47:24;;;;;;;3.50;2.38;;;22.30;54.50;;;;;;5036597;28;20052;-32
2023/06/09 11:49:59;;;;;;;3.90;2.30;;;22.90;71.60;;;;;;5032195;28;20132;-31
2023/06/09 11:52:26;;;;;;;3.72;2.20;;;;;;;;;;5031552;28;20132;-33
2023/06/09 11:54:54;;;;;;;4.93;2.70;;;22.10;71.50;;;;;;5032266;28;20129;-31
2023/06/09 11:57:21;;;;;;;3.38;2.25;;;22.40;71.00;;;;;;5050984;28;20128;-31
2023/06/09 11:59:48;;;;;;;4.15;2.08;;;;;;;;;;5051811;28;20452;-32
2023/06/09 12:02:17;;;;;;;2.83;2.15;;;22.10;71.00;;;;;;5049102;28;20081;-33
2023/06/09 12:04:45;;;;;;;3.72;2.60;;;;;;;;;;5031492;28;20216;-33
2023/06/09 12:07:13;;;;;;;3.10;2.17;;;22.20;70.80;;;;;;5031562;28;20072;-34
2023/06/09 12:09:41;;;;;;;4.82;2.53;;;22.20;61.90;;;;;;5032075;28;20095;-33
2023/06/09 12:12:10;;;;;;;3.65;2.00;;;22.00;70.60;;;;;;5031077;28;20669;-33
2023/06/09 12:14:37;;;;;;;2.85;2.20;;;;;;;;;;5033185;28;20051;-32
2023/06/09 12:17:04;;;;;;;4.82;2.15;;;22.30;70.70;;;;;;5050919;28;20135;-33
2023/06/09 12:19:31;;;;;;;3.85;2.40;;;;;;;;;;5049584;28;20084;-32
2023/06/09 12:21:58;;;;;;;4.18;2.45;;;;;;;;;;5050901;28;20052;-33
2023/06/09 12:24:27;;;;;;;3.65;2.38;;;22.40;54.40;;;;;;5051152;28;20132;-32
2023/06/09 12:26:53;;;;;;;4.28;2.55;;;22.40;58.60;;;;;;5047428;28;20529;-33
2023/06/09 12:29:27;;;;;;;3.80;2.40;;;22.70;68.10;;;;;;5047226;28;20049;-34
2023/06/09 12:31:53;;;;;;;5.25;2.65;;;22.50;64.30;;;;;;5049929;28;20139;-33
2023/06/09 12:34:28;;;;;;;6.05;2.85;;;22.40;54.40;;;;;;5041989;28;20144;-33
2023/06/09 12:36:55;;;;;;;4.45;2.90;;;22.40;56.40;;;;;;5043273;28;20096;-33
2023/06/09 12:39:24;;;;;;;4.00;2.55;;;22.30;70.90;;;;;;5047488;28;20099;-33
2023/06/09 12:41:50;;;;;;;4.68;2.85;;;21.70;70.90;;;;;;5050109;28;20398;-34
2023/06/09 12:44:21;;;;;;;4.30;2.78;;;22.80;71.90;;;;;;5054109;28;20049;-33
2023/06/09 12:46:54;;;;;;;6.38;3.03;;;22.40;57.70;;;;;;5054859;28;20044;-32
2023/06/09 12:49:27;;;;;;;7.35;3.33;;;22.90;71.10;;;;;;5054858;28;20417;-34
2023/06/09 12:51:54;;;;;;;4.18;2.80;;;22.30;61.50;;;;;;5054395;28;20051;-33
2023/06/09 12:54:21;;;;;;;4.55;2.85;;;22.20;70.80;;;;;;5054472;28;20424;-33
2023/06/09 12:56:47;;;;;;;4.70;2.85;;;22.00;60.40;;;;;;5054846;28;20711;-34
2023/06/09 12:59:14;;;;;;;6.43;3.20;;;22.70;61.10;;;;;;5054217;28;20041;-33
2023/06/09 13:01:41;;;;;;;6.35;3.58;;;22.30;71.00;;;;;;5054704;28;20128;-33
2023/06/09 13:04:09;;;;;;;7.35;3.17;;;23.10;71.50;;;;;;5051828;28;20084;-33
2023/06/09 13:06:36;;;;;;;6.75;3.17;;;22.50;71.30;;;;;;5054487;28;20589;-33
2023/06/09 13:09:02;;;;;;;6.45;3.40;;;23.30;67.20;;;;;;5052110;28;20160;-34
2023/06/09 13:11:30;;;;;;;5.97;3.40;;;22.70;72.10;;;;;;5054837;28;20135;-33
2023/06/09 13:13:57;;;;;;;5.45;3.20;;;;;;;;;;5054850;28;20112;-33